sensor_id;sensor_type;location;lat;lon;timestamp;temperature;humidity
14585;DHT22;7379;51.506;11.876;2022-09-09T00:02:19;19.00;67.60
14585;DHT22;7379;51.506;11.876;2022-09-09T00:04:53;19.00;67.60
14585;DHT22;7379;51.506;11.876;2022-09-09T00:07:33;19.00;67.70
14585;DHT22;7379;51.506;11.876;2022-09-09T00:10:14;19.00;67.60
14585;DHT22;7379;51.506;11.876;2022-09-09T00:12:50;19.00;67.60
14585;DHT22;7379;51.506;11.876;2022-09-09T00:15:23;19.00;67.60
14585;DHT22;7379;51.506;11.876;2022-09-09T00:17:55;18.90;67.60
14585;DHT22;7379;51.506;11.876;2022-09-09T00:20:28;19.00;67.60
14585;DHT22;7379;51.506;11.876;2022-09-09T00:23:02;18.90;67.60
14585;DHT22;7379;51.506;11.876;2022-09-09T00:25:36;18.90;67.60
14585;DHT22;7379;51.506;11.876;2022-09-09T00:28:13;18.90;67.60
14585;DHT22;7379;51.506;11.876;2022-09-09T00:30:41;18.90;67.60
14585;DHT22;7379;51.506;11.876;2022-09-09T00:33:11;18.90;67.50
14585;DHT22;7379;51.506;11.876;2022-09-09T00:35:44;18.90;67.50
14585;DHT22;7379;51.506;11.876;2022-09-09T00:38:15;18.90;67.50
14585;DHT22;7379;51.506;11.876;2022-09-09T00:40:49;18.80;67.40
14585;DHT22;7379;51.506;11.876;2022-09-09T00:43:27;18.80;67.40
14585;DHT22;7379;51.506;11.876;2022-09-09T00:46:15;18.80;67.40
14585;DHT22;7379;51.506;11.876;2022-09-09T00:48:51;18.80;67.40
14585;DHT22;7379;51.506;11.876;2022-09-09T00:51:29;18.80;67.40
14585;DHT22;7379;51.506;11.876;2022-09-09T00:54:13;18.80;67.40
14585;DHT22;7379;51.506;11.876;2022-09-09T00:56:47;18.80;67.40
14585;DHT22;7379;51.506;11.876;2022-09-09T00:59:27;18.80;67.40
14585;DHT22;7379;51.506;11.876;2022-09-09T01:01:55;18.70;67.30
14585;DHT22;7379;51.506;11.876;2022-09-09T01:04:29;18.70;67.30
14585;DHT22;7379;51.506;11.876;2022-09-09T01:07:05;18.80;67.40
14585;DHT22;7379;51.506;11.876;2022-09-09T01:09:41;18.70;67.30
14585;DHT22;7379;51.506;11.876;2022-09-09T01:12:13;18.70;67.30
14585;DHT22;7379;51.506;11.876;2022-09-09T01:14:45;18.70;67.30
14585;DHT22;7379;51.506;11.876;2022-09-09T01:17:16;18.70;67.30
14585;DHT22;7379;51.506;11.876;2022-09-09T01:19:58;18.70;67.30
14585;DHT22;7379;51.506;11.876;2022-09-09T01:22:34;18.70;67.30
14585;DHT22;7379;51.506;11.876;2022-09-09T01:25:27;18.70;68.10
14585;DHT22;7379;51.506;11.876;2022-09-09T01:27:59;18.60;67.20
14585;DHT22;7379;51.506;11.876;2022-09-09T01:30:27;18.60;67.10
14585;DHT22;7379;51.506;11.876;2022-09-09T01:32:56;18.60;67.10
14585;DHT22;7379;51.506;11.876;2022-09-09T01:35:32;18.60;67.10
14585;DHT22;7379;51.506;11.876;2022-09-09T01:38:01;18.60;67.10
14585;DHT22;7379;51.506;11.876;2022-09-09T01:40:28;18.60;67.10
14585;DHT22;7379;51.506;11.876;2022-09-09T01:42:56;18.60;67.10
14585;DHT22;7379;51.506;11.876;2022-09-09T01:45:24;18.50;67.00
14585;DHT22;7379;51.506;11.876;2022-09-09T01:47:52;18.60;67.10
14585;DHT22;7379;51.506;11.876;2022-09-09T01:50:20;18.50;67.00
14585;DHT22;7379;51.506;11.876;2022-09-09T01:52:50;18.50;67.00
14585;DHT22;7379;51.506;11.876;2022-09-09T01:55:20;18.50;67.00
14585;DHT22;7379;51.506;11.876;2022-09-09T01:57:56;18.50;67.00
14585;DHT22;7379;51.506;11.876;2022-09-09T02:00:27;18.50;67.00
14585;DHT22;7379;51.506;11.876;2022-09-09T02:03:03;18.50;67.00
14585;DHT22;7379;51.506;11.876;2022-09-09T02:05:36;18.50;67.10
14585;DHT22;7379;51.506;11.876;2022-09-09T02:08:06;18.50;67.00
14585;DHT22;7379;51.506;11.876;2022-09-09T02:10:40;18.50;67.10
14585;DHT22;7379;51.506;11.876;2022-09-09T02:13:11;18.50;67.00
14585;DHT22;7379;51.506;11.876;2022-09-09T02:15:45;18.40;66.90
14585;DHT22;7379;51.506;11.876;2022-09-09T02:18:15;18.50;67.00
14585;DHT22;7379;51.506;11.876;2022-09-09T02:20:45;18.40;67.00
14585;DHT22;7379;51.506;11.876;2022-09-09T02:23:13;18.40;67.00
14585;DHT22;7379;51.506;11.876;2022-09-09T02:25:41;18.40;67.00
14585;DHT22;7379;51.506;11.876;2022-09-09T02:28:10;18.40;67.00
14585;DHT22;7379;51.506;11.876;2022-09-09T02:30:41;18.40;67.00
14585;DHT22;7379;51.506;11.876;2022-09-09T02:33:09;18.40;67.80
14585;DHT22;7379;51.506;11.876;2022-09-09T02:35:38;18.40;67.00
14585;DHT22;7379;51.506;11.876;2022-09-09T02:38:09;18.40;67.00
14585;DHT22;7379;51.506;11.876;2022-09-09T02:40:37;18.40;67.00
14585;DHT22;7379;51.506;11.876;2022-09-09T02:43:03;18.40;67.00
14585;DHT22;7379;51.506;11.876;2022-09-09T02:45:42;18.30;66.90
14585;DHT22;7379;51.506;11.876;2022-09-09T02:48:17;18.30;66.90
14585;DHT22;7379;51.506;11.876;2022-09-09T02:50:52;18.30;66.90
14585;DHT22;7379;51.506;11.876;2022-09-09T02:53:23;18.30;66.90
14585;DHT22;7379;51.506;11.876;2022-09-09T02:55:55;18.30;66.90
14585;DHT22;7379;51.506;11.876;2022-09-09T02:58:24;18.30;66.90
14585;DHT22;7379;51.506;11.876;2022-09-09T03:00:51;18.30;66.90
14585;DHT22;7379;51.506;11.876;2022-09-09T03:03:20;18.30;66.90
14585;DHT22;7379;51.506;11.876;2022-09-09T03:05:47;18.30;66.90
14585;DHT22;7379;51.506;11.876;2022-09-09T03:08:15;18.30;66.90
14585;DHT22;7379;51.506;11.876;2022-09-09T03:10:42;18.30;66.90
14585;DHT22;7379;51.506;11.876;2022-09-09T03:13:09;18.20;66.90
14585;DHT22;7379;51.506;11.876;2022-09-09T03:15:38;18.20;66.90
14585;DHT22;7379;51.506;11.876;2022-09-09T03:18:05;18.20;66.90
14585;DHT22;7379;51.506;11.876;2022-09-09T03:20:33;18.20;66.90
14585;DHT22;7379;51.506;11.876;2022-09-09T03:23:00;18.20;66.90
14585;DHT22;7379;51.506;11.876;2022-09-09T03:25:28;18.20;66.90
14585;DHT22;7379;51.506;11.876;2022-09-09T03:27:56;18.20;66.90
14585;DHT22;7379;51.506;11.876;2022-09-09T03:30:23;18.20;66.90
14585;DHT22;7379;51.506;11.876;2022-09-09T03:32:50;18.20;66.90
14585;DHT22;7379;51.506;11.876;2022-09-09T03:35:18;18.20;66.90
14585;DHT22;7379;51.506;11.876;2022-09-09T03:37:46;18.20;66.90
14585;DHT22;7379;51.506;11.876;2022-09-09T03:40:13;18.20;66.90
14585;DHT22;7379;51.506;11.876;2022-09-09T03:42:40;18.10;66.80
14585;DHT22;7379;51.506;11.876;2022-09-09T03:45:09;18.10;66.80
14585;DHT22;7379;51.506;11.876;2022-09-09T03:47:36;18.10;66.80
14585;DHT22;7379;51.506;11.876;2022-09-09T03:50:04;18.10;66.80
14585;DHT22;7379;51.506;11.876;2022-09-09T03:52:34;18.10;66.80
14585;DHT22;7379;51.506;11.876;2022-09-09T03:55:03;18.10;66.90
14585;DHT22;7379;51.506;11.876;2022-09-09T03:57:31;18.10;66.90
14585;DHT22;7379;51.506;11.876;2022-09-09T04:00:00;18.10;66.90
14585;DHT22;7379;51.506;11.876;2022-09-09T04:02:27;18.10;66.90
14585;DHT22;7379;51.506;11.876;2022-09-09T04:04:54;18.00;66.80
14585;DHT22;7379;51.506;11.876;2022-09-09T04:07:21;18.00;67.50
14585;DHT22;7379;51.506;11.876;2022-09-09T04:09:48;18.00;66.80
14585;DHT22;7379;51.506;11.876;2022-09-09T04:12:16;18.00;66.80
14585;DHT22;7379;51.506;11.876;2022-09-09T04:14:43;18.00;66.80
14585;DHT22;7379;51.506;11.876;2022-09-09T04:17:10;18.00;66.80
14585;DHT22;7379;51.506;11.876;2022-09-09T04:19:36;18.00;66.80
14585;DHT22;7379;51.506;11.876;2022-09-09T04:22:03;18.00;66.80
14585;DHT22;7379;51.506;11.876;2022-09-09T04:24:30;18.00;66.80
14585;DHT22;7379;51.506;11.876;2022-09-09T04:26:57;18.00;66.80
14585;DHT22;7379;51.506;11.876;2022-09-09T04:29:25;18.00;66.90
14585;DHT22;7379;51.506;11.876;2022-09-09T04:31:52;18.00;66.90
14585;DHT22;7379;51.506;11.876;2022-09-09T04:34:18;18.00;66.90
14585;DHT22;7379;51.506;11.876;2022-09-09T04:36:45;18.00;66.90
14585;DHT22;7379;51.506;11.876;2022-09-09T04:39:12;18.00;66.90
14585;DHT22;7379;51.506;11.876;2022-09-09T04:41:40;18.00;66.90
14585;DHT22;7379;51.506;11.876;2022-09-09T04:44:06;18.00;66.90
14585;DHT22;7379;51.506;11.876;2022-09-09T04:46:34;18.00;66.90
14585;DHT22;7379;51.506;11.876;2022-09-09T04:49:01;17.90;66.80
14585;DHT22;7379;51.506;11.876;2022-09-09T04:51:28;17.90;66.90
14585;DHT22;7379;51.506;11.876;2022-09-09T04:53:56;17.90;66.90
14585;DHT22;7379;51.506;11.876;2022-09-09T04:56:23;17.90;66.90
14585;DHT22;7379;51.506;11.876;2022-09-09T04:58:52;17.90;66.90
14585;DHT22;7379;51.506;11.876;2022-09-09T05:01:20;17.90;66.90
14585;DHT22;7379;51.506;11.876;2022-09-09T05:03:49;17.90;66.90
14585;DHT22;7379;51.506;11.876;2022-09-09T05:06:17;17.90;67.00
14585;DHT22;7379;51.506;11.876;2022-09-09T05:08:45;17.90;67.00
14585;DHT22;7379;51.506;11.876;2022-09-09T05:11:16;17.90;67.00
14585;DHT22;7379;51.506;11.876;2022-09-09T05:13:43;17.90;67.00
14585;DHT22;7379;51.506;11.876;2022-09-09T05:16:10;17.90;67.00
14585;DHT22;7379;51.506;11.876;2022-09-09T05:18:37;17.90;67.00
14585;DHT22;7379;51.506;11.876;2022-09-09T05:21:05;17.90;67.00
14585;DHT22;7379;51.506;11.876;2022-09-09T05:23:32;17.90;67.10
14585;DHT22;7379;51.506;11.876;2022-09-09T05:26:00;17.90;67.10
14585;DHT22;7379;51.506;11.876;2022-09-09T05:28:27;17.90;67.10
14585;DHT22;7379;51.506;11.876;2022-09-09T05:30:58;17.90;67.10
14585;DHT22;7379;51.506;11.876;2022-09-09T05:33:26;17.90;67.10
14585;DHT22;7379;51.506;11.876;2022-09-09T05:35:57;17.90;67.10
14585;DHT22;7379;51.506;11.876;2022-09-09T05:38:26;17.90;67.10
14585;DHT22;7379;51.506;11.876;2022-09-09T05:40:53;17.90;67.10
14585;DHT22;7379;51.506;11.876;2022-09-09T05:43:19;17.90;67.10
14585;DHT22;7379;51.506;11.876;2022-09-09T05:45:46;17.90;67.10
14585;DHT22;7379;51.506;11.876;2022-09-09T05:48:14;17.90;67.20
14585;DHT22;7379;51.506;11.876;2022-09-09T05:50:41;17.80;67.10
14585;DHT22;7379;51.506;11.876;2022-09-09T05:53:08;17.80;67.10
14585;DHT22;7379;51.506;11.876;2022-09-09T05:55:37;17.90;67.20
14585;DHT22;7379;51.506;11.876;2022-09-09T05:58:03;17.80;67.10
14585;DHT22;7379;51.506;11.876;2022-09-09T06:00:30;17.80;67.10
14585;DHT22;7379;51.506;11.876;2022-09-09T06:02:58;17.80;67.10
14585;DHT22;7379;51.506;11.876;2022-09-09T06:05:25;17.80;67.20
14585;DHT22;7379;51.506;11.876;2022-09-09T06:07:53;17.80;67.20
14585;DHT22;7379;51.506;11.876;2022-09-09T06:10:19;17.80;67.20
14585;DHT22;7379;51.506;11.876;2022-09-09T06:12:48;17.80;67.30
14585;DHT22;7379;51.506;11.876;2022-09-09T06:15:15;17.80;67.30
14585;DHT22;7379;51.506;11.876;2022-09-09T06:17:42;17.80;67.30
14585;DHT22;7379;51.506;11.876;2022-09-09T06:20:10;17.80;67.30
14585;DHT22;7379;51.506;11.876;2022-09-09T06:22:39;17.80;67.30
14585;DHT22;7379;51.506;11.876;2022-09-09T06:25:07;17.80;67.30
14585;DHT22;7379;51.506;11.876;2022-09-09T06:27:34;17.80;67.30
14585;DHT22;7379;51.506;11.876;2022-09-09T06:30:03;17.80;67.30
14585;DHT22;7379;51.506;11.876;2022-09-09T06:32:30;17.80;67.30
14585;DHT22;7379;51.506;11.876;2022-09-09T06:35:00;17.80;67.30
14585;DHT22;7379;51.506;11.876;2022-09-09T06:37:28;17.80;67.30
14585;DHT22;7379;51.506;11.876;2022-09-09T06:39:54;17.80;67.30
14585;DHT22;7379;51.506;11.876;2022-09-09T06:42:21;17.80;67.30
14585;DHT22;7379;51.506;11.876;2022-09-09T06:44:48;17.80;67.30
14585;DHT22;7379;51.506;11.876;2022-09-09T06:47:16;17.80;67.30
14585;DHT22;7379;51.506;11.876;2022-09-09T06:49:43;17.80;67.40
14585;DHT22;7379;51.506;11.876;2022-09-09T06:52:10;17.80;67.30
14585;DHT22;7379;51.506;11.876;2022-09-09T06:54:37;17.80;67.40
14585;DHT22;7379;51.506;11.876;2022-09-09T06:57:04;17.80;67.30
14585;DHT22;7379;51.506;11.876;2022-09-09T06:59:32;17.80;67.30
14585;DHT22;7379;51.506;11.876;2022-09-09T07:01:59;17.80;67.30
14585;DHT22;7379;51.506;11.876;2022-09-09T07:04:28;17.90;67.50
14585;DHT22;7379;51.506;11.876;2022-09-09T07:06:54;17.80;67.30
14585;DHT22;7379;51.506;11.876;2022-09-09T07:09:21;17.90;67.60
14585;DHT22;7379;51.506;11.876;2022-09-09T07:11:50;17.90;68.00
14585;DHT22;7379;51.506;11.876;2022-09-09T07:14:18;17.90;67.90
14585;DHT22;7379;51.506;11.876;2022-09-09T07:16:46;17.90;67.80
14585;DHT22;7379;51.506;11.876;2022-09-09T07:19:13;17.90;67.70
14585;DHT22;7379;51.506;11.876;2022-09-09T07:21:42;17.90;68.50
14585;DHT22;7379;51.506;11.876;2022-09-09T07:24:10;17.90;67.60
14585;DHT22;7379;51.506;11.876;2022-09-09T07:26:38;17.90;67.60
14585;DHT22;7379;51.506;11.876;2022-09-09T07:29:05;17.90;67.60
14585;DHT22;7379;51.506;11.876;2022-09-09T07:31:34;17.90;67.60
14585;DHT22;7379;51.506;11.876;2022-09-09T07:34:02;17.90;67.60
14585;DHT22;7379;51.506;11.876;2022-09-09T07:36:30;17.90;67.70
14585;DHT22;7379;51.506;11.876;2022-09-09T07:39:01;17.90;68.00
14585;DHT22;7379;51.506;11.876;2022-09-09T07:41:31;17.90;68.00
14585;DHT22;7379;51.506;11.876;2022-09-09T07:44:03;18.00;68.00
14585;DHT22;7379;51.506;11.876;2022-09-09T07:46:30;18.00;68.00
14585;DHT22;7379;51.506;11.876;2022-09-09T07:48:57;18.00;68.00
14585;DHT22;7379;51.506;11.876;2022-09-09T07:51:25;18.00;67.90
14585;DHT22;7379;51.506;11.876;2022-09-09T07:53:54;18.00;67.70
14585;DHT22;7379;51.506;11.876;2022-09-09T07:56:25;18.00;67.80
14585;DHT22;7379;51.506;11.876;2022-09-09T07:58:53;18.10;68.00
14585;DHT22;7379;51.506;11.876;2022-09-09T08:01:22;18.10;67.90
14585;DHT22;7379;51.506;11.876;2022-09-09T08:03:54;18.10;67.90
14585;DHT22;7379;51.506;11.876;2022-09-09T08:06:21;18.10;67.90
14585;DHT22;7379;51.506;11.876;2022-09-09T08:08:50;18.10;67.90
14585;DHT22;7379;51.506;11.876;2022-09-09T08:11:17;18.10;67.80
14585;DHT22;7379;51.506;11.876;2022-09-09T08:13:45;18.20;68.00
14585;DHT22;7379;51.506;11.876;2022-09-09T08:16:14;18.10;67.80
14585;DHT22;7379;51.506;11.876;2022-09-09T08:18:42;18.20;68.10
14585;DHT22;7379;51.506;11.876;2022-09-09T08:21:11;18.20;68.00
14585;DHT22;7379;51.506;11.876;2022-09-09T08:23:38;18.20;67.90
14585;DHT22;7379;51.506;11.876;2022-09-09T08:26:09;18.20;67.90
14585;DHT22;7379;51.506;11.876;2022-09-09T08:28:36;18.20;68.00
14585;DHT22;7379;51.506;11.876;2022-09-09T08:31:09;18.30;68.10
14585;DHT22;7379;51.506;11.876;2022-09-09T08:33:37;18.30;68.10
14585;DHT22;7379;51.506;11.876;2022-09-09T08:36:06;18.30;68.10
14585;DHT22;7379;51.506;11.876;2022-09-09T08:38:34;18.30;68.10
14585;DHT22;7379;51.506;11.876;2022-09-09T08:41:13;18.30;68.00
14585;DHT22;7379;51.506;11.876;2022-09-09T08:43:46;18.40;68.10
14585;DHT22;7379;51.506;11.876;2022-09-09T08:46:17;18.40;68.10
14585;DHT22;7379;51.506;11.876;2022-09-09T08:48:53;18.40;68.00
14585;DHT22;7379;51.506;11.876;2022-09-09T08:51:26;18.40;68.00
14585;DHT22;7379;51.506;11.876;2022-09-09T08:53:54;18.40;68.10
14585;DHT22;7379;51.506;11.876;2022-09-09T08:56:25;18.40;68.10
14585;DHT22;7379;51.506;11.876;2022-09-09T08:58:55;18.40;68.10
14585;DHT22;7379;51.506;11.876;2022-09-09T09:01:44;18.40;68.20
14585;DHT22;7379;51.506;11.876;2022-09-09T09:04:29;18.40;68.20
14585;DHT22;7379;51.506;11.876;2022-09-09T09:07:04;18.40;68.30
14585;DHT22;7379;51.506;11.876;2022-09-09T09:09:37;18.40;68.40
14585;DHT22;7379;51.506;11.876;2022-09-09T09:12:15;18.40;68.60
14585;DHT22;7379;51.506;11.876;2022-09-09T09:14:43;18.40;68.60
14585;DHT22;7379;51.506;11.876;2022-09-09T09:17:14;18.40;68.70
14585;DHT22;7379;51.506;11.876;2022-09-09T09:19:43;18.40;68.70
14585;DHT22;7379;51.506;11.876;2022-09-09T09:22:16;18.40;68.70
14585;DHT22;7379;51.506;11.876;2022-09-09T09:24:50;18.40;68.80
14585;DHT22;7379;51.506;11.876;2022-09-09T09:27:25;18.40;68.80
14585;DHT22;7379;51.506;11.876;2022-09-09T09:29:57;18.40;68.80
14585;DHT22;7379;51.506;11.876;2022-09-09T09:32:28;18.40;69.20
14585;DHT22;7379;51.506;11.876;2022-09-09T09:34:58;18.50;69.80
14585;DHT22;7379;51.506;11.876;2022-09-09T09:37:29;18.50;69.00
14585;DHT22;7379;51.506;11.876;2022-09-09T09:40:07;18.50;68.80
14585;DHT22;7379;51.506;11.876;2022-09-09T09:42:34;18.50;69.00
14585;DHT22;7379;51.506;11.876;2022-09-09T09:45:08;18.50;69.20
14585;DHT22;7379;51.506;11.876;2022-09-09T09:47:37;18.60;69.10
14585;DHT22;7379;51.506;11.876;2022-09-09T09:50:17;18.60;69.30
14585;DHT22;7379;51.506;11.876;2022-09-09T09:52:53;18.70;69.10
14585;DHT22;7379;51.506;11.876;2022-09-09T09:55:21;18.70;69.10
14585;DHT22;7379;51.506;11.876;2022-09-09T09:57:48;18.80;69.10
14585;DHT22;7379;51.506;11.876;2022-09-09T10:00:17;18.80;68.80
14585;DHT22;7379;51.506;11.876;2022-09-09T10:02:48;18.90;68.70
14585;DHT22;7379;51.506;11.876;2022-09-09T10:05:19;18.90;68.50
14585;DHT22;7379;51.506;11.876;2022-09-09T10:07:47;18.90;68.50
14585;DHT22;7379;51.506;11.876;2022-09-09T10:10:39;19.00;68.40
14585;DHT22;7379;51.506;11.876;2022-09-09T10:13:13;19.00;68.60
14585;DHT22;7379;51.506;11.876;2022-09-09T10:15:50;19.00;68.30
14585;DHT22;7379;51.506;11.876;2022-09-09T10:18:43;19.00;68.10
14585;DHT22;7379;51.506;11.876;2022-09-09T10:21:21;19.00;68.20
14585;DHT22;7379;51.506;11.876;2022-09-09T10:24:03;18.90;68.00
14585;DHT22;7379;51.506;11.876;2022-09-09T10:26:40;19.00;67.90
14585;DHT22;7379;51.506;11.876;2022-09-09T10:29:22;19.00;67.80
14585;DHT22;7379;51.506;11.876;2022-09-09T10:32:02;19.00;67.70
14585;DHT22;7379;51.506;11.876;2022-09-09T10:34:47;19.00;67.80
14585;DHT22;7379;51.506;11.876;2022-09-09T10:37:29;19.00;67.80
14585;DHT22;7379;51.506;11.876;2022-09-09T10:40:05;19.00;67.80
14585;DHT22;7379;51.506;11.876;2022-09-09T10:42:38;19.00;67.90
14585;DHT22;7379;51.506;11.876;2022-09-09T10:45:15;19.00;68.30
14585;DHT22;7379;51.506;11.876;2022-09-09T10:48:00;19.00;67.90
14585;DHT22;7379;51.506;11.876;2022-09-09T10:50:52;19.00;68.30
14585;DHT22;7379;51.506;11.876;2022-09-09T10:53:28;19.00;68.10
14585;DHT22;7379;51.506;11.876;2022-09-09T10:56:01;19.00;68.10
14585;DHT22;7379;51.506;11.876;2022-09-09T10:58:33;19.10;68.30
14585;DHT22;7379;51.506;11.876;2022-09-09T11:01:11;19.10;67.90
14585;DHT22;7379;51.506;11.876;2022-09-09T11:03:42;19.10;67.80
14585;DHT22;7379;51.506;11.876;2022-09-09T11:06:14;19.20;68.00
14585;DHT22;7379;51.506;11.876;2022-09-09T11:08:43;19.20;68.00
14585;DHT22;7379;51.506;11.876;2022-09-09T11:11:15;19.20;68.00
14585;DHT22;7379;51.506;11.876;2022-09-09T11:13:47;19.20;67.50
14585;DHT22;7379;51.506;11.876;2022-09-09T11:16:22;19.30;67.70
14585;DHT22;7379;51.506;11.876;2022-09-09T11:18:55;19.30;67.40
14585;DHT22;7379;51.506;11.876;2022-09-09T11:21:29;19.30;67.80
14585;DHT22;7379;51.506;11.876;2022-09-09T11:24:01;19.40;67.20
14585;DHT22;7379;51.506;11.876;2022-09-09T11:26:35;19.30;67.70
14585;DHT22;7379;51.506;11.876;2022-09-09T11:29:20;19.40;67.30
14585;DHT22;7379;51.506;11.876;2022-09-09T11:32:00;19.50;67.20
14585;DHT22;7379;51.506;11.876;2022-09-09T11:34:42;19.50;67.00
14585;DHT22;7379;51.506;11.876;2022-09-09T11:37:35;19.50;66.70
14585;DHT22;7379;51.506;11.876;2022-09-09T11:40:19;19.60;66.50
14585;DHT22;7379;51.506;11.876;2022-09-09T11:42:49;19.60;65.40
14585;DHT22;7379;51.506;11.876;2022-09-09T11:45:28;19.60;64.80
14585;DHT22;7379;51.506;11.876;2022-09-09T11:47:57;19.70;65.50
14585;DHT22;7379;51.506;11.876;2022-09-09T11:50:30;19.70;65.20
14585;DHT22;7379;51.506;11.876;2022-09-09T11:53:20;19.70;65.10
14585;DHT22;7379;51.506;11.876;2022-09-09T11:55:59;19.80;65.20
14585;DHT22;7379;51.506;11.876;2022-09-09T11:58:27;19.80;64.80
14585;DHT22;7379;51.506;11.876;2022-09-09T12:00:58;19.80;64.20
14585;DHT22;7379;51.506;11.876;2022-09-09T12:03:35;19.80;63.90
14585;DHT22;7379;51.506;11.876;2022-09-09T12:06:11;19.90;63.90
14585;DHT22;7379;51.506;11.876;2022-09-09T12:08:41;19.90;64.90
14585;DHT22;7379;51.506;11.876;2022-09-09T12:11:10;20.00;63.80
14585;DHT22;7379;51.506;11.876;2022-09-09T12:13:37;20.10;63.10
14585;DHT22;7379;51.506;11.876;2022-09-09T12:16:04;20.20;62.60
14585;DHT22;7379;51.506;11.876;2022-09-09T12:18:34;20.30;62.40
14585;DHT22;7379;51.506;11.876;2022-09-09T12:21:07;20.40;62.20
14585;DHT22;7379;51.506;11.876;2022-09-09T12:23:42;20.40;61.80
14585;DHT22;7379;51.506;11.876;2022-09-09T12:26:29;20.40;62.40
14585;DHT22;7379;51.506;11.876;2022-09-09T12:29:08;20.40;62.00
14585;DHT22;7379;51.506;11.876;2022-09-09T12:31:42;20.40;62.00
14585;DHT22;7379;51.506;11.876;2022-09-09T12:34:14;20.40;61.80
14585;DHT22;7379;51.506;11.876;2022-09-09T12:36:42;20.40;61.80
14585;DHT22;7379;51.506;11.876;2022-09-09T12:39:18;20.40;61.40
14585;DHT22;7379;51.506;11.876;2022-09-09T12:41:53;20.40;61.20
14585;DHT22;7379;51.506;11.876;2022-09-09T12:44:23;20.40;61.20
14585;DHT22;7379;51.506;11.876;2022-09-09T12:46:51;20.40;61.40
14585;DHT22;7379;51.506;11.876;2022-09-09T12:49:31;20.30;61.40
14585;DHT22;7379;51.506;11.876;2022-09-09T12:52:01;20.30;61.20
14585;DHT22;7379;51.506;11.876;2022-09-09T12:54:30;20.30;61.50
14585;DHT22;7379;51.506;11.876;2022-09-09T12:56:57;20.30;61.50
14585;DHT22;7379;51.506;11.876;2022-09-09T12:59:26;20.30;61.90
14585;DHT22;7379;51.506;11.876;2022-09-09T13:01:56;20.40;61.20
14585;DHT22;7379;51.506;11.876;2022-09-09T13:04:24;20.50;61.00
14585;DHT22;7379;51.506;11.876;2022-09-09T13:06:51;20.60;60.20
14585;DHT22;7379;51.506;11.876;2022-09-09T13:09:19;20.70;60.40
14585;DHT22;7379;51.506;11.876;2022-09-09T13:11:49;20.80;60.20
14585;DHT22;7379;51.506;11.876;2022-09-09T13:14:19;21.00;59.70
14585;DHT22;7379;51.506;11.876;2022-09-09T13:16:55;21.20;59.40
14585;DHT22;7379;51.506;11.876;2022-09-09T13:19:23;21.20;59.50
14585;DHT22;7379;51.506;11.876;2022-09-09T13:21:53;21.40;58.90
14585;DHT22;7379;51.506;11.876;2022-09-09T13:24:29;21.60;57.70
14585;DHT22;7379;51.506;11.876;2022-09-09T13:27:00;21.60;57.90
14585;DHT22;7379;51.506;11.876;2022-09-09T13:29:29;21.60;57.40
14585;DHT22;7379;51.506;11.876;2022-09-09T13:32:04;21.80;56.80
14585;DHT22;7379;51.506;11.876;2022-09-09T13:34:34;21.90;56.70
14585;DHT22;7379;51.506;11.876;2022-09-09T13:37:03;21.90;57.00
14585;DHT22;7379;51.506;11.876;2022-09-09T13:39:32;21.80;56.60
14585;DHT22;7379;51.506;11.876;2022-09-09T13:42:02;21.80;57.30
14585;DHT22;7379;51.506;11.876;2022-09-09T13:44:31;21.80;57.00
14585;DHT22;7379;51.506;11.876;2022-09-09T13:47:03;21.90;56.70
14585;DHT22;7379;51.506;11.876;2022-09-09T13:49:31;21.90;56.80
14585;DHT22;7379;51.506;11.876;2022-09-09T13:52:08;22.20;56.50
14585;DHT22;7379;51.506;11.876;2022-09-09T13:54:35;22.20;56.50
14585;DHT22;7379;51.506;11.876;2022-09-09T13:57:04;22.30;56.60
14585;DHT22;7379;51.506;11.876;2022-09-09T13:59:31;22.40;55.60
14585;DHT22;7379;51.506;11.876;2022-09-09T14:01:58;22.40;56.30
14585;DHT22;7379;51.506;11.876;2022-09-09T14:04:24;22.60;54.90
14585;DHT22;7379;51.506;11.876;2022-09-09T14:06:51;22.80;54.70
14585;DHT22;7379;51.506;11.876;2022-09-09T14:09:18;22.90;54.30
14585;DHT22;7379;51.506;11.876;2022-09-09T14:11:45;22.90;54.60
14585;DHT22;7379;51.506;11.876;2022-09-09T14:14:13;22.90;54.80
14585;DHT22;7379;51.506;11.876;2022-09-09T14:16:40;22.90;54.90
14585;DHT22;7379;51.506;11.876;2022-09-09T14:19:08;22.90;54.80
14585;DHT22;7379;51.506;11.876;2022-09-09T14:21:34;22.90;54.50
14585;DHT22;7379;51.506;11.876;2022-09-09T14:24:02;23.00;54.30
14585;DHT22;7379;51.506;11.876;2022-09-09T14:26:28;23.00;53.60
14585;DHT22;7379;51.506;11.876;2022-09-09T14:28:55;23.20;51.90
14585;DHT22;7379;51.506;11.876;2022-09-09T14:31:24;23.10;52.80
14585;DHT22;7379;51.506;11.876;2022-09-09T14:33:51;23.00;53.20
14585;DHT22;7379;51.506;11.876;2022-09-09T14:36:18;23.00;53.40
14585;DHT22;7379;51.506;11.876;2022-09-09T14:38:45;23.20;52.30
14585;DHT22;7379;51.506;11.876;2022-09-09T14:41:14;23.10;52.60
14585;DHT22;7379;51.506;11.876;2022-09-09T14:43:42;23.30;52.10
14585;DHT22;7379;51.506;11.876;2022-09-09T14:46:11;23.40;51.40
14585;DHT22;7379;51.506;11.876;2022-09-09T14:48:40;23.50;51.00
14585;DHT22;7379;51.506;11.876;2022-09-09T14:51:08;23.30;51.20
14585;DHT22;7379;51.506;11.876;2022-09-09T14:53:36;23.70;50.10
14585;DHT22;7379;51.506;11.876;2022-09-09T14:56:07;23.80;50.10
14585;DHT22;7379;51.506;11.876;2022-09-09T14:58:34;24.10;48.90
14585;DHT22;7379;51.506;11.876;2022-09-09T15:01:05;24.20;48.70
14585;DHT22;7379;51.506;11.876;2022-09-09T15:03:32;24.00;49.80
14585;DHT22;7379;51.506;11.876;2022-09-09T15:06:05;23.90;49.50
14585;DHT22;7379;51.506;11.876;2022-09-09T15:08:32;24.00;49.70
14585;DHT22;7379;51.506;11.876;2022-09-09T15:10:59;24.10;50.10
14585;DHT22;7379;51.506;11.876;2022-09-09T15:13:27;24.20;49.70
14585;DHT22;7379;51.506;11.876;2022-09-09T15:15:53;23.90;50.50
14585;DHT22;7379;51.506;11.876;2022-09-09T15:18:21;23.80;50.80
14585;DHT22;7379;51.506;11.876;2022-09-09T15:20:48;24.10;50.40
14585;DHT22;7379;51.506;11.876;2022-09-09T15:23:16;24.30;49.20
14585;DHT22;7379;51.506;11.876;2022-09-09T15:25:53;24.70;48.00
14585;DHT22;7379;51.506;11.876;2022-09-09T15:28:20;24.80;48.60
14585;DHT22;7379;51.506;11.876;2022-09-09T15:30:48;24.80;47.80
14585;DHT22;7379;51.506;11.876;2022-09-09T15:33:15;24.80;47.50
14585;DHT22;7379;51.506;11.876;2022-09-09T15:35:42;24.90;46.20
14585;DHT22;7379;51.506;11.876;2022-09-09T15:38:09;25.10;46.50
14585;DHT22;7379;51.506;11.876;2022-09-09T15:40:39;25.00;46.70
14585;DHT22;7379;51.506;11.876;2022-09-09T15:43:07;25.20;46.00
14585;DHT22;7379;51.506;11.876;2022-09-09T15:45:35;25.20;46.40
14585;DHT22;7379;51.506;11.876;2022-09-09T15:48:02;25.30;46.60
14585;DHT22;7379;51.506;11.876;2022-09-09T15:50:28;25.20;46.40
14585;DHT22;7379;51.506;11.876;2022-09-09T15:52:58;25.20;47.30